Terminal Aerodrome Forecast
Issued by NWS Wichita, KS

Home | Current Version | Previous Version | Graphics & Text | Print | Product List | Glossary On
Versions: 1 2 3 4 5 6 7 8 9 10 11 12 13 14
786
FTUS43 KICT 221733
TAFICT
TAF
KICT 221733Z 2218/2318 02014KT P6SM SCT035 OVC100
     FM230200 36007KT P6SM SKC
     FM231100 VRB04KT P6SM SKC
     FM231600 20005KT P6SM SKC=

USA.gov is the U.S. government's official web portal to all federal, state and local government web resources and services.